createdAt,value
2022-09-18T00:01:20.642Z,0.80
2022-09-18T00:03:50.238Z,0.70
2022-09-18T00:06:20.295Z,0.90
2022-09-18T00:08:52.152Z,0.90
2022-09-18T00:11:22.406Z,0.90
2022-09-18T00:13:51.559Z,0.93
2022-09-18T00:16:22.586Z,0.68
2022-09-18T00:18:52.309Z,0.90
2022-09-18T00:21:24.465Z,0.60
2022-09-18T00:23:54.035Z,0.68
2022-09-18T00:26:25.655Z,0.95
2022-09-18T00:28:54.109Z,0.70
2022-09-18T00:31:25.598Z,0.80
2022-09-18T00:33:55.456Z,0.82
2022-09-18T00:36:23.985Z,0.70
2022-09-18T00:38:52.356Z,0.85
2022-09-18T00:41:23.854Z,0.80
2022-09-18T00:43:52.312Z,0.93
2022-09-18T00:46:26.054Z,0.70
2022-09-18T00:49:05.388Z,0.65
2022-09-18T00:51:35.321Z,0.88
2022-09-18T00:54:11.942Z,0.77
2022-09-18T00:56:40.443Z,1.00
2022-09-18T00:59:13.587Z,0.80
2022-09-18T01:01:41.639Z,1.00
2022-09-18T01:04:13.022Z,0.65
2022-09-18T01:06:47.716Z,0.63
2022-09-18T01:09:28.866Z,0.85
2022-09-18T01:12:05.768Z,0.73
2022-09-18T01:14:41.950Z,0.90
2022-09-18T01:17:20.645Z,0.90
2022-09-18T01:20:17.145Z,0.47
2022-09-18T01:23:00.459Z,0.80
2022-09-18T01:25:37.008Z,0.80
2022-09-18T01:28:17.600Z,1.05
2022-09-18T01:30:49.726Z,0.95
2022-09-18T01:33:26.334Z,0.80
2022-09-18T01:35:58.275Z,1.00
2022-09-18T01:38:33.237Z,0.73
2022-09-18T01:41:06.225Z,0.88
2022-09-18T01:43:38.431Z,0.77
2022-09-18T01:46:12.191Z,0.90
2022-09-18T01:48:45.160Z,0.85
2022-09-18T01:51:18.362Z,0.55
2022-09-18T01:53:49.723Z,0.88
2022-09-18T01:56:23.053Z,0.70
2022-09-18T01:58:53.422Z,0.90
2022-09-18T02:01:25.046Z,0.63
2022-09-18T02:03:59.816Z,0.68
2022-09-18T02:06:33.631Z,0.70
2022-09-18T02:09:03.383Z,0.63
2022-09-18T02:11:34.477Z,1.05
2022-09-18T02:14:09.744Z,0.85
2022-09-18T02:16:43.256Z,0.60
2022-09-18T02:19:17.084Z,0.80
2022-09-18T02:21:48.267Z,0.98
2022-09-18T02:24:20.195Z,0.85
2022-09-18T02:26:51.836Z,0.80
2022-09-18T02:29:24.021Z,0.68
2022-09-18T02:31:52.729Z,1.10
2022-09-18T02:34:21.788Z,0.60
2022-09-18T02:37:05.547Z,1.52
2022-09-18T02:39:53.825Z,0.75
2022-09-18T02:42:31.943Z,0.80
2022-09-18T02:45:09.820Z,0.80
2022-09-18T02:47:49.949Z,0.90
2022-09-18T02:50:21.572Z,0.82
2022-09-18T02:52:56.043Z,0.88
2022-09-18T02:55:29.629Z,0.70
2022-09-18T02:58:01.772Z,0.80
2022-09-18T03:00:33.017Z,0.88
2022-09-18T03:03:01.248Z,1.02
2022-09-18T03:05:29.302Z,1.30
2022-09-18T03:07:58.770Z,0.65
2022-09-18T03:10:26.812Z,0.80
2022-09-18T03:12:57.391Z,1.45
2022-09-18T03:15:25.340Z,0.80
2022-09-18T03:17:54.639Z,0.98
2022-09-18T03:20:22.565Z,0.68
2022-09-18T03:22:50.534Z,0.68
2022-09-18T03:25:18.522Z,1.00
2022-09-18T03:27:46.485Z,1.00
2022-09-18T03:30:14.609Z,0.98
2022-09-18T03:32:42.544Z,1.00
2022-09-18T03:35:12.148Z,0.70
2022-09-18T03:40:09.385Z,1.08
2022-09-18T03:42:37.417Z,0.90
2022-09-18T03:45:06.576Z,0.90
2022-09-18T03:47:36.677Z,0.68
2022-09-18T03:50:05.947Z,1.00
2022-09-18T03:52:35.392Z,0.85
2022-09-18T03:55:05.604Z,0.90
2022-09-18T03:57:33.596Z,1.08
2022-09-18T04:00:01.616Z,0.70
2022-09-18T04:02:29.580Z,0.90
2022-09-18T04:04:57.808Z,1.02
2022-09-18T04:07:25.851Z,0.80
2022-09-18T04:09:55.146Z,0.90
2022-09-18T04:12:23.299Z,1.05
2022-09-18T04:14:51.224Z,1.00
2022-09-18T04:17:19.193Z,0.52
2022-09-18T04:19:51.340Z,0.70
2022-09-18T04:22:21.667Z,0.90
2022-09-18T04:24:50.287Z,0.70
2022-09-18T04:27:19.673Z,0.80
2022-09-18T04:29:47.858Z,1.20
2022-09-18T04:32:15.881Z,0.82
2022-09-18T04:34:43.947Z,0.90
2022-09-18T04:37:11.905Z,1.08
2022-09-18T04:39:40.311Z,1.00
2022-09-18T04:42:08.446Z,0.95
2022-09-18T04:44:39.473Z,0.90
2022-09-18T04:47:09.034Z,1.05
2022-09-18T04:49:37.012Z,1.20
2022-09-18T04:52:05.561Z,0.93
2022-09-18T04:54:33.503Z,1.08
2022-09-18T04:57:01.459Z,0.90
2022-09-18T04:59:29.406Z,1.05
2022-09-18T05:01:58.760Z,1.00
2022-09-18T05:04:26.743Z,0.80
2022-09-18T05:06:54.729Z,0.90
2022-09-18T05:09:22.667Z,0.70
2022-09-18T05:11:50.596Z,0.80
2022-09-18T05:14:18.527Z,0.70
2022-09-18T05:16:46.506Z,0.63
2022-09-18T05:19:15.953Z,0.80
2022-09-18T05:21:43.973Z,0.90
2022-09-18T05:24:13.967Z,1.00
2022-09-18T05:26:41.932Z,1.15
2022-09-18T05:29:10.810Z,1.15
2022-09-18T05:34:11.278Z,0.82
2022-09-18T05:36:40.627Z,1.10
2022-09-18T05:39:08.618Z,0.70
2022-09-18T05:41:38.003Z,0.60
2022-09-18T05:44:06.350Z,0.70
2022-09-18T05:46:34.426Z,0.70
2022-09-18T05:49:02.849Z,1.45
2022-09-18T05:51:30.785Z,1.33
2022-09-18T05:54:00.280Z,1.42
2022-09-18T05:58:56.679Z,1.13
2022-09-18T06:01:24.687Z,0.85
2022-09-18T06:03:53.009Z,0.90
2022-09-18T06:06:20.987Z,0.98
2022-09-18T06:08:49.376Z,1.00
2022-09-18T06:11:18.713Z,0.85
2022-09-18T06:13:48.981Z,0.65
2022-09-18T06:16:17.246Z,0.80
2022-09-18T06:18:45.249Z,0.93
2022-09-18T06:21:15.044Z,0.77
2022-09-18T06:23:43.496Z,0.60
2022-09-18T06:26:14.952Z,0.80
2022-09-18T06:28:44.907Z,0.95
2022-09-18T06:31:12.933Z,0.85
2022-09-18T06:33:40.966Z,0.65
2022-09-18T06:36:13.822Z,0.85
2022-09-18T06:38:41.873Z,0.80
2022-09-18T06:41:09.940Z,0.90
2022-09-18T06:43:37.899Z,0.82
2022-09-18T06:46:07.897Z,0.80
2022-09-18T06:48:35.856Z,0.70
2022-09-18T06:51:03.813Z,1.05
2022-09-18T06:53:31.810Z,0.80
2022-09-18T06:56:02.374Z,1.00
2022-09-18T06:58:30.419Z,0.82
2022-09-18T07:01:00.748Z,0.77
2022-09-18T07:03:30.209Z,0.70
2022-09-18T07:05:58.249Z,0.60
2022-09-18T07:08:26.237Z,0.80
2022-09-18T07:10:54.233Z,0.63
2022-09-18T07:13:22.217Z,0.80
2022-09-18T07:15:50.254Z,0.55
2022-09-18T07:18:18.255Z,7.25
2022-09-18T07:20:48.570Z,1.00
2022-09-18T07:23:16.564Z,1.95
2022-09-18T07:25:44.571Z,1.63
2022-09-18T07:28:12.906Z,1.23
2022-09-18T07:30:41.708Z,5.20
2022-09-18T07:33:11.229Z,1.70
2022-09-18T07:35:39.217Z,1.00
2022-09-18T07:38:09.140Z,0.82
2022-09-18T07:40:37.623Z,0.75
2022-09-18T07:43:07.565Z,0.67
2022-09-18T07:45:36.275Z,0.80
2022-09-18T07:48:06.212Z,0.68
2022-09-18T07:50:34.605Z,1.30
2022-09-18T07:53:05.227Z,1.00
2022-09-18T07:55:36.649Z,0.82
2022-09-18T07:58:06.338Z,0.77
2022-09-18T08:00:36.974Z,0.85
2022-09-18T08:03:06.023Z,1.00
2022-09-18T08:05:34.316Z,1.08
2022-09-18T08:08:06.203Z,3.57
2022-09-18T08:10:36.743Z,1.10
2022-09-18T08:13:05.142Z,0.73
2022-09-18T08:15:34.690Z,0.70
2022-09-18T08:20:30.576Z,0.98
2022-09-18T08:22:58.846Z,0.88
2022-09-18T08:25:28.394Z,0.82
2022-09-18T08:30:27.351Z,0.60
2022-09-18T08:32:59.268Z,0.90
2022-09-18T08:35:27.748Z,0.88
2022-09-18T08:37:55.793Z,1.17
2022-09-18T08:40:34.883Z,0.90
2022-09-18T08:43:12.717Z,1.30
2022-09-18T08:45:52.308Z,1.13
2022-09-18T08:48:25.318Z,0.98
2022-09-18T08:51:00.303Z,0.45
2022-09-18T08:53:33.911Z,0.30
2022-09-18T08:56:05.008Z,0.40
2022-09-18T08:58:39.768Z,0.43
2022-09-18T09:01:10.346Z,0.50
2022-09-18T09:03:47.712Z,0.82
2022-09-18T09:06:30.172Z,0.77
2022-09-18T09:09:23.773Z,0.50
2022-09-18T09:11:56.880Z,0.30
2022-09-18T09:14:56.187Z,0.93
2022-09-18T09:17:39.528Z,0.50
2022-09-18T09:20:28.567Z,0.50
2022-09-18T09:23:03.875Z,0.57
2022-09-18T09:25:39.750Z,0.80
2022-09-18T09:28:16.899Z,0.80
2022-09-18T09:30:52.740Z,0.40
2022-09-18T09:33:24.998Z,0.60
2022-09-18T09:35:56.078Z,0.57
2022-09-18T09:38:38.587Z,0.60
2022-09-18T09:41:17.145Z,0.50
2022-09-18T09:43:54.750Z,0.50
2022-09-18T09:46:37.440Z,0.50
2022-09-18T09:49:12.493Z,0.55
2022-09-18T09:51:50.302Z,0.98
2022-09-18T09:54:18.602Z,0.50
2022-09-18T09:56:53.650Z,1.20
2022-09-18T09:59:30.198Z,0.82
2022-09-18T10:02:14.113Z,1.20
2022-09-18T10:04:48.226Z,1.27
2022-09-18T10:07:22.712Z,1.45
2022-09-18T10:09:57.831Z,1.17
2022-09-18T10:12:32.052Z,0.90
2022-09-18T10:15:07.941Z,0.82
2022-09-18T10:17:41.314Z,0.82
2022-09-18T10:20:15.944Z,0.80
2022-09-18T10:22:44.493Z,0.60
2022-09-18T10:25:21.590Z,0.60
2022-09-18T10:27:49.641Z,0.77
2022-09-18T10:30:17.894Z,0.57
2022-09-18T10:32:49.275Z,0.30
2022-09-18T10:38:03.576Z,0.63
2022-09-18T10:40:33.931Z,0.70
2022-09-18T10:43:03.336Z,0.70
2022-09-18T10:48:07.998Z,0.63
2022-09-18T10:50:37.330Z,0.68
2022-09-18T10:53:23.284Z,0.60
2022-09-18T10:55:55.791Z,0.60
2022-09-18T10:58:29.823Z,0.40
2022-09-18T11:01:02.439Z,0.55
2022-09-18T11:03:40.487Z,0.60
2022-09-18T11:06:16.677Z,0.50
2022-09-18T11:08:48.131Z,0.52
2022-09-18T11:11:23.512Z,0.93
2022-09-18T11:13:57.220Z,1.05
2022-09-18T11:16:27.730Z,1.58
2022-09-18T11:19:07.748Z,1.15
2022-09-18T11:21:45.209Z,1.30
2022-09-18T11:24:28.593Z,1.17
2022-09-18T11:26:57.858Z,1.30
2022-09-18T11:29:31.778Z,1.27
2022-09-18T11:32:16.618Z,1.30
2022-09-18T11:34:50.026Z,0.85
2022-09-18T11:37:36.038Z,0.73
2022-09-18T11:40:07.600Z,1.15
2022-09-18T11:42:43.186Z,1.33
2022-09-18T11:45:43.783Z,1.45
2022-09-18T11:48:22.109Z,1.08
2022-09-18T11:50:54.019Z,1.40
2022-09-18T11:53:26.093Z,1.70
2022-09-18T11:55:58.648Z,1.85
2022-09-18T11:58:32.328Z,1.30
2022-09-18T12:01:10.204Z,1.70
2022-09-18T12:03:44.004Z,1.33
2022-09-18T12:06:22.470Z,1.40
2022-09-18T12:08:56.205Z,1.17
2022-09-18T12:11:32.153Z,1.27
2022-09-18T12:14:09.110Z,1.40
2022-09-18T12:16:46.025Z,1.40
2022-09-18T12:19:19.771Z,1.30
2022-09-18T12:21:56.746Z,1.10
2022-09-18T12:24:24.708Z,1.05
2022-09-18T12:27:01.789Z,0.88
2022-09-18T12:29:43.727Z,0.82
2022-09-18T12:32:29.144Z,1.17
2022-09-18T12:35:10.122Z,4.70
2022-09-18T12:37:52.995Z,5.43
2022-09-18T12:40:38.182Z,0.90
2022-09-18T12:43:29.825Z,0.63
2022-09-18T12:46:09.425Z,0.90
2022-09-18T12:48:55.128Z,0.82
2022-09-18T12:51:41.150Z,0.98
2022-09-18T12:54:30.195Z,0.70
2022-09-18T12:57:16.894Z,0.70
2022-09-18T12:59:54.967Z,0.45
2022-09-18T13:02:43.552Z,0.88
2022-09-18T13:05:19.166Z,1.10
2022-09-18T13:07:52.681Z,1.20
2022-09-18T13:10:26.473Z,0.57
2022-09-18T13:13:00.375Z,1.02
2022-09-18T13:15:34.087Z,1.20
2022-09-18T13:18:16.129Z,1.63
2022-09-18T13:20:46.637Z,0.65
2022-09-18T13:23:18.631Z,1.58
2022-09-18T13:25:51.579Z,1.63
2022-09-18T13:28:23.150Z,0.73
2022-09-18T13:31:24.678Z,2.13
2022-09-18T13:33:55.827Z,1.00
2022-09-18T13:36:25.986Z,0.50
2022-09-18T13:38:54.732Z,0.82
2022-09-18T13:41:24.585Z,0.93
2022-09-18T13:43:55.595Z,0.95
2022-09-18T13:46:36.703Z,0.80
2022-09-18T13:49:18.427Z,1.00
2022-09-18T13:51:46.631Z,0.52
2022-09-18T13:54:29.278Z,0.85
2022-09-18T13:57:29.707Z,0.90
2022-09-18T14:00:01.624Z,0.85
2022-09-18T14:02:32.839Z,0.50
2022-09-18T14:05:04.300Z,0.50
2022-09-18T14:07:54.949Z,0.70
2022-09-18T14:10:54.884Z,0.68
2022-09-18T14:13:51.731Z,0.82
2022-09-18T14:16:40.673Z,0.60
2022-09-18T14:19:32.148Z,0.75
2022-09-18T14:22:01.353Z,1.30
2022-09-18T14:24:41.496Z,0.80
2022-09-18T14:27:30.682Z,0.88
2022-09-18T14:30:03.726Z,0.90
2022-09-18T14:32:32.561Z,0.90
2022-09-18T14:35:35.719Z,0.60
2022-09-18T14:38:15.871Z,0.70
2022-09-18T14:40:49.226Z,0.60
2022-09-18T14:43:18.239Z,0.70
2022-09-18T14:45:50.791Z,0.70
2022-09-18T14:48:26.985Z,0.80
2022-09-18T14:51:04.335Z,0.52
2022-09-18T14:53:40.245Z,0.70
2022-09-18T14:56:10.561Z,0.60
2022-09-18T14:58:42.017Z,0.60
2022-09-18T15:01:17.677Z,0.50
2022-09-18T15:03:49.358Z,0.70
2022-09-18T15:06:22.065Z,0.32
2022-09-18T15:08:54.532Z,0.50
2022-09-18T15:11:26.797Z,0.30
2022-09-18T15:13:56.436Z,0.63
2022-09-18T15:16:29.806Z,0.55
2022-09-18T15:18:58.687Z,0.60
2022-09-18T15:21:33.076Z,0.65
2022-09-18T15:24:03.264Z,0.50
2022-09-18T15:26:33.676Z,0.50
2022-09-18T15:29:03.534Z,0.60
2022-09-18T15:31:33.722Z,0.73
2022-09-18T15:34:06.881Z,0.57
2022-09-18T15:36:36.384Z,0.60
2022-09-18T15:41:41.414Z,0.80
2022-09-18T15:44:54.296Z,0.55
2022-09-18T15:47:32.690Z,0.60
2022-09-18T15:50:02.723Z,0.70
2022-09-18T15:52:37.464Z,0.38
2022-09-18T15:55:19.177Z,0.40
2022-09-18T15:57:50.026Z,0.32
2022-09-18T16:00:19.603Z,0.60
2022-09-18T16:05:21.534Z,1.00
2022-09-18T16:07:53.272Z,0.90
2022-09-18T16:10:48.879Z,1.20
2022-09-18T16:13:35.010Z,1.30
2022-09-18T16:16:24.987Z,0.88
2022-09-18T16:18:57.081Z,1.50
2022-09-18T16:21:28.048Z,1.20
2022-09-18T16:23:59.103Z,1.30
2022-09-18T16:26:30.745Z,1.40
2022-09-18T16:29:01.095Z,1.10
2022-09-18T16:31:32.964Z,1.52
2022-09-18T16:34:03.908Z,1.40
2022-09-18T16:36:34.300Z,1.35
2022-09-18T16:39:05.179Z,1.25
2022-09-18T16:41:34.120Z,1.30
2022-09-18T16:44:04.077Z,1.33
2022-09-18T16:46:38.491Z,1.10
2022-09-18T16:49:08.079Z,1.45
2022-09-18T16:54:03.940Z,1.70
2022-09-18T16:56:36.165Z,1.63
2022-09-18T16:59:06.773Z,1.77
2022-09-18T17:06:54.076Z,1.30
2022-09-18T17:09:23.767Z,1.30
2022-09-18T17:11:51.996Z,1.95
2022-09-18T17:14:20.399Z,1.90
2022-09-18T17:16:48.447Z,2.45
2022-09-18T17:19:16.574Z,2.00
2022-09-18T17:21:46.578Z,2.20
2022-09-18T17:24:14.815Z,2.58
2022-09-18T17:26:42.907Z,2.80
2022-09-18T17:29:12.201Z,2.45
2022-09-18T17:31:40.440Z,3.42
2022-09-18T17:34:08.550Z,3.22
2022-09-18T17:36:36.962Z,4.10
2022-09-18T17:39:06.747Z,5.25
2022-09-18T17:41:34.972Z,5.43
2022-09-18T17:44:03.648Z,4.28
2022-09-18T17:46:31.774Z,4.03
2022-09-18T17:49:00.814Z,3.17
2022-09-18T17:51:29.427Z,4.07
2022-09-18T17:53:59.923Z,2.60
2022-09-18T17:56:30.688Z,2.20
2022-09-18T17:59:00.148Z,1.95
2022-09-18T18:01:29.657Z,2.28
2022-09-18T18:03:58.327Z,1.90
2022-09-18T18:06:27.272Z,1.50
2022-09-18T18:08:57.205Z,2.17
2022-09-18T18:11:26.208Z,3.58
2022-09-18T18:13:56.232Z,2.80
2022-09-18T18:16:30.383Z,3.00
2022-09-18T18:19:00.036Z,3.40
2022-09-18T18:23:57.817Z,3.33
2022-09-18T18:26:27.876Z,3.75
2022-09-18T18:28:57.479Z,3.70
2022-09-18T18:33:55.419Z,5.07
2022-09-18T18:36:25.704Z,6.10
2022-09-18T18:38:56.789Z,5.28
2022-09-18T18:41:28.056Z,5.13
2022-09-18T18:43:59.485Z,4.30
2022-09-18T18:46:29.044Z,2.80
2022-09-18T18:49:01.670Z,2.55
2022-09-18T18:51:31.780Z,2.50
2022-09-18T18:54:01.130Z,1.90
2022-09-18T18:56:29.440Z,1.60
2022-09-18T18:59:00.593Z,1.48
2022-09-18T19:01:30.263Z,1.38
2022-09-18T19:04:00.162Z,1.83
2022-09-18T19:06:28.637Z,2.10
2022-09-18T19:08:57.913Z,1.52
2022-09-18T19:11:26.522Z,1.55
2022-09-18T19:13:57.246Z,0.83
2022-09-18T19:16:27.702Z,1.50
2022-09-18T19:18:58.511Z,1.60
2022-09-18T19:21:27.276Z,1.40
2022-09-18T19:23:59.210Z,1.55
2022-09-18T19:26:29.952Z,1.20
2022-09-18T19:28:59.600Z,1.30
2022-09-18T19:31:30.457Z,1.73
2022-09-18T19:33:58.513Z,1.80
2022-09-18T19:36:29.453Z,1.45
2022-09-18T19:38:59.162Z,1.30
2022-09-18T19:41:34.277Z,1.80
2022-09-18T19:44:05.284Z,1.20
2022-09-18T19:46:36.801Z,0.93
2022-09-18T19:49:04.873Z,1.23
2022-09-18T19:51:35.814Z,1.10
2022-09-18T19:54:04.007Z,1.20
2022-09-18T19:56:43.039Z,1.13
2022-09-18T19:59:11.564Z,0.60
2022-09-18T20:01:41.023Z,0.88
2022-09-18T20:04:09.200Z,0.90
2022-09-18T20:06:38.755Z,1.20
2022-09-18T20:11:35.187Z,1.02
2022-09-18T20:14:03.307Z,1.03
2022-09-18T20:16:31.362Z,1.05
2022-09-18T20:19:01.118Z,1.20
2022-09-18T20:21:29.711Z,1.50
2022-09-18T20:23:59.080Z,1.23
2022-09-18T20:26:28.825Z,1.05
2022-09-18T20:28:56.865Z,1.00
2022-09-18T20:31:26.730Z,1.15
2022-09-18T20:33:56.451Z,0.93
2022-09-18T20:36:27.145Z,1.35
2022-09-18T20:38:56.472Z,1.10
2022-09-18T20:41:26.887Z,0.90
2022-09-18T20:43:55.189Z,1.08
2022-09-18T20:46:24.159Z,1.00
2022-09-18T20:48:55.136Z,1.23
2022-09-18T20:51:25.708Z,1.10
2022-09-18T20:53:57.215Z,0.95
2022-09-18T20:56:27.373Z,0.93
2022-09-18T20:58:56.671Z,1.00
2022-09-18T21:01:26.709Z,0.88
2022-09-18T21:03:57.019Z,1.00
2022-09-18T21:06:26.560Z,0.95
2022-09-18T21:11:27.363Z,0.90
2022-09-18T21:13:57.696Z,0.90
2022-09-18T21:16:27.418Z,0.80
2022-09-18T21:19:00.154Z,1.00
2022-09-18T21:21:30.449Z,0.70
2022-09-18T21:24:02.217Z,0.90
2022-09-18T21:26:33.385Z,0.80
2022-09-18T21:29:03.944Z,0.60
2022-09-18T21:31:33.479Z,0.80
2022-09-18T21:36:33.541Z,0.55
2022-09-18T21:39:03.584Z,0.80
2022-09-18T21:41:39.484Z,1.08
2022-09-18T21:44:09.465Z,0.93
2022-09-18T21:46:39.775Z,0.90
2022-09-18T21:49:09.344Z,0.70
2022-09-18T21:54:15.090Z,0.90
2022-09-18T21:56:43.116Z,0.90
2022-09-18T21:59:11.895Z,0.68
2022-09-18T22:01:41.621Z,0.80
2022-09-18T22:04:10.780Z,1.08
2022-09-18T22:06:40.829Z,0.70
2022-09-18T22:09:12.784Z,0.95
2022-09-18T22:11:41.753Z,0.90
2022-09-18T22:14:12.772Z,0.70
2022-09-18T22:16:42.970Z,0.70
2022-09-18T22:19:11.113Z,0.70
2022-09-18T22:21:40.666Z,0.70
2022-09-18T22:26:40.392Z,1.50
2022-09-18T22:31:39.026Z,0.82
2022-09-18T22:34:07.898Z,0.70
2022-09-18T22:39:05.987Z,0.70
2022-09-18T22:41:39.745Z,0.80
2022-09-18T22:44:08.418Z,0.70
2022-09-18T22:46:38.502Z,0.53
2022-09-18T22:49:06.983Z,0.80
2022-09-18T22:51:36.119Z,0.60
2022-09-18T22:54:07.603Z,0.90
2022-09-18T22:56:40.313Z,1.10
2022-09-18T22:59:09.125Z,0.80
2022-09-18T23:01:42.512Z,0.60
2022-09-18T23:04:11.047Z,0.60
2022-09-18T23:06:39.547Z,0.88
2022-09-18T23:09:07.571Z,0.73
2022-09-18T23:11:36.950Z,1.00
2022-09-18T23:14:08.630Z,0.68
2022-09-18T23:16:37.895Z,0.82
2022-09-18T23:19:09.621Z,0.55
2022-09-18T23:21:39.899Z,0.60
2022-09-18T23:24:09.435Z,0.65
2022-09-18T23:29:10.348Z,0.60
2022-09-18T23:31:39.702Z,0.70
2022-09-18T23:34:09.199Z,0.70
2022-09-18T23:36:39.088Z,0.60
2022-09-18T23:39:11.540Z,0.60
2022-09-18T23:41:40.145Z,0.68
2022-09-18T23:44:11.540Z,0.70
2022-09-18T23:46:39.917Z,0.77
2022-09-18T23:49:08.912Z,0.70
2022-09-18T23:51:40.425Z,0.55
2022-09-18T23:54:12.393Z,0.50
2022-09-18T23:56:40.321Z,0.68
2022-09-18T23:59:09.636Z,0.50
